createdAt,value
2023-02-23T00:01:51.499Z,23.70
2023-02-23T00:04:18.736Z,32.73
2023-02-23T00:06:45.671Z,26.27
2023-02-23T00:09:22.867Z,28.53
2023-02-23T00:11:57.184Z,31.33
2023-02-23T00:14:29.092Z,27.10
2023-02-23T00:16:56.421Z,26.83
2023-02-23T00:19:24.739Z,31.63
2023-02-23T00:21:52.092Z,29.30
2023-02-23T00:24:20.424Z,26.00
2023-02-23T00:26:51.078Z,21.90
2023-02-23T00:29:21.002Z,31.60
2023-02-23T00:31:49.250Z,28.17
2023-02-23T00:34:20.978Z,23.67
2023-02-23T00:36:55.109Z,29.00
2023-02-23T00:39:26.431Z,25.63
2023-02-23T00:41:55.341Z,25.50
2023-02-23T00:44:23.698Z,25.23
2023-02-23T00:46:51.700Z,25.80
2023-02-23T00:49:20.360Z,26.63
2023-02-23T00:51:47.583Z,25.90
2023-02-23T00:54:15.852Z,25.60
2023-02-23T00:56:42.605Z,30.13
2023-02-23T00:59:10.080Z,25.57
2023-02-23T01:01:38.394Z,23.10
2023-02-23T01:04:07.106Z,28.47
2023-02-23T01:06:37.245Z,24.20
2023-02-23T01:09:11.493Z,23.70
2023-02-23T01:11:38.607Z,25.43
2023-02-23T01:14:05.211Z,30.50
2023-02-23T01:16:33.747Z,27.57
2023-02-23T01:19:03.515Z,27.57
2023-02-23T01:21:36.259Z,25.57
2023-02-23T01:24:04.160Z,23.07
2023-02-23T01:26:36.249Z,25.50
2023-02-23T01:29:08.811Z,24.37
2023-02-23T01:31:39.321Z,25.53
2023-02-23T01:34:07.131Z,32.43
2023-02-23T01:36:38.935Z,31.17
2023-02-23T01:39:08.549Z,26.20
2023-02-23T01:41:36.727Z,28.70
2023-02-23T01:44:07.903Z,31.57
2023-02-23T01:46:39.105Z,25.20
2023-02-23T01:49:10.515Z,27.57
2023-02-23T01:51:43.004Z,27.20
2023-02-23T01:54:16.036Z,29.30
2023-02-23T01:56:49.156Z,25.33
2023-02-23T01:59:17.756Z,27.60
2023-02-23T02:01:45.172Z,27.20
2023-02-23T02:04:16.806Z,24.63
2023-02-23T02:06:45.797Z,27.73
2023-02-23T02:09:19.470Z,29.63
2023-02-23T02:11:54.053Z,25.20
2023-02-23T02:14:30.762Z,28.73
2023-02-23T02:17:25.425Z,23.33
2023-02-23T02:20:14.786Z,29.87
2023-02-23T02:23:08.374Z,29.60
2023-02-23T02:26:05.141Z,27.13
2023-02-23T02:28:50.423Z,26.33
2023-02-23T02:32:01.401Z,31.47
2023-02-23T02:35:11.421Z,27.67
2023-02-23T02:37:48.563Z,27.03
2023-02-23T02:40:28.422Z,25.63
2023-02-23T02:43:13.032Z,25.47
2023-02-23T02:45:43.072Z,26.60
2023-02-23T02:48:19.615Z,24.70
2023-02-23T02:50:55.575Z,26.67
2023-02-23T02:53:55.816Z,27.60
2023-02-23T02:56:26.371Z,27.37
2023-02-23T02:58:54.704Z,28.97
2023-02-23T03:01:40.196Z,25.40
2023-02-23T03:04:55.329Z,28.93
2023-02-23T03:07:50.267Z,27.97
2023-02-23T03:10:42.599Z,30.73
2023-02-23T03:13:43.236Z,29.70
2023-02-23T03:17:08.320Z,29.93
2023-02-23T03:20:04.175Z,32.77
2023-02-23T03:22:56.561Z,26.10
2023-02-23T03:25:47.877Z,25.60
2023-02-23T03:28:48.292Z,26.07
2023-02-23T03:31:45.739Z,30.33
2023-02-23T03:34:38.616Z,24.67
2023-02-23T03:37:33.483Z,23.90
2023-02-23T03:40:26.963Z,29.37
2023-02-23T03:43:16.340Z,26.90
2023-02-23T03:46:04.258Z,28.00
2023-02-23T03:48:55.058Z,29.93
2023-02-23T03:51:43.947Z,31.77
2023-02-23T03:54:37.019Z,30.20
2023-02-23T03:57:26.907Z,24.93
2023-02-23T04:00:18.387Z,28.73
2023-02-23T04:03:08.747Z,28.17
2023-02-23T04:05:58.448Z,32.10
2023-02-23T04:08:52.123Z,31.47
2023-02-23T04:12:04.341Z,26.63
2023-02-23T04:14:41.881Z,30.80
2023-02-23T04:17:10.362Z,33.37
2023-02-23T04:19:37.210Z,39.70
2023-02-23T04:22:03.856Z,32.97
2023-02-23T04:24:30.469Z,32.77
2023-02-23T04:26:57.074Z,29.17
2023-02-23T04:29:24.120Z,33.87
2023-02-23T04:31:50.858Z,33.10
2023-02-23T04:34:17.589Z,36.33
2023-02-23T04:36:44.164Z,35.93
2023-02-23T04:39:10.781Z,35.80
2023-02-23T04:41:37.503Z,33.60
2023-02-23T04:44:04.864Z,35.40
2023-02-23T04:46:31.625Z,33.20
2023-02-23T04:48:58.273Z,29.50
2023-02-23T04:51:30.079Z,29.70
2023-02-23T04:53:56.637Z,31.43
2023-02-23T04:56:23.288Z,30.90
2023-02-23T04:58:50.400Z,35.00
2023-02-23T05:01:17.843Z,33.53
2023-02-23T05:03:44.652Z,30.67
2023-02-23T05:06:12.669Z,28.63
2023-02-23T05:08:39.417Z,36.57
2023-02-23T05:11:07.310Z,36.47
2023-02-23T05:13:34.361Z,33.73
2023-02-23T05:16:01.130Z,36.30
2023-02-23T05:18:27.811Z,32.10
2023-02-23T05:21:02.174Z,31.83
2023-02-23T05:23:28.816Z,34.83
2023-02-23T05:26:01.267Z,32.10
2023-02-23T05:28:27.924Z,34.60
2023-02-23T05:30:54.684Z,31.67
2023-02-23T05:33:21.805Z,33.67
2023-02-23T05:35:48.948Z,33.77
2023-02-23T05:38:15.622Z,31.73
2023-02-23T05:40:42.309Z,34.43
2023-02-23T05:43:08.968Z,35.77
2023-02-23T05:45:40.359Z,30.93
2023-02-23T05:48:07.793Z,31.37
2023-02-23T05:50:34.578Z,33.93
2023-02-23T05:53:01.252Z,34.00
2023-02-23T05:55:28.242Z,35.17
2023-02-23T05:57:55.436Z,31.33
2023-02-23T06:00:22.470Z,33.77
2023-02-23T06:02:52.282Z,37.37
2023-02-23T06:05:19.413Z,30.20
2023-02-23T06:07:46.876Z,30.83
2023-02-23T06:10:14.390Z,32.63
2023-02-23T06:12:41.122Z,31.90
2023-02-23T06:15:08.429Z,27.90
2023-02-23T06:17:35.844Z,28.43
2023-02-23T06:20:04.853Z,29.90
2023-02-23T06:22:31.573Z,32.83
2023-02-23T06:24:58.366Z,30.57
2023-02-23T06:27:26.217Z,33.70
2023-02-23T06:29:52.902Z,30.17
2023-02-23T06:32:19.615Z,30.80
2023-02-23T06:34:51.078Z,33.10
2023-02-23T06:37:17.819Z,34.80
2023-02-23T06:39:44.719Z,33.00
2023-02-23T06:42:11.300Z,34.13
2023-02-23T06:44:38.049Z,29.47
2023-02-23T06:47:06.060Z,28.70
2023-02-23T06:49:33.051Z,33.70
2023-02-23T06:52:00.123Z,27.23
2023-02-23T06:54:26.781Z,27.33
2023-02-23T06:56:56.594Z,27.23
2023-02-23T06:59:24.236Z,26.53
2023-02-23T07:01:51.075Z,31.53
2023-02-23T07:04:17.924Z,27.20
2023-02-23T07:06:44.638Z,29.73
2023-02-23T07:09:11.347Z,28.07
2023-02-23T07:11:38.060Z,28.27
2023-02-23T07:14:04.647Z,28.00
2023-02-23T07:16:32.121Z,25.17
2023-02-23T07:18:58.990Z,26.63
2023-02-23T07:21:25.630Z,29.17
2023-02-23T07:23:52.219Z,25.13
2023-02-23T07:26:18.867Z,30.40
2023-02-23T07:28:45.604Z,28.10
2023-02-23T07:31:12.315Z,30.87
2023-02-23T07:33:38.965Z,28.17
2023-02-23T07:36:05.882Z,23.73
2023-02-23T07:38:32.781Z,25.27
2023-02-23T07:40:59.653Z,27.93
2023-02-23T07:43:26.290Z,29.70
2023-02-23T07:45:53.005Z,27.53
2023-02-23T07:48:20.643Z,27.10
2023-02-23T07:50:47.917Z,28.07
2023-02-23T07:53:15.185Z,29.37
2023-02-23T07:55:41.847Z,26.33
2023-02-23T07:58:08.997Z,24.00
2023-02-23T08:00:36.912Z,27.80
2023-02-23T08:03:03.603Z,32.23
2023-02-23T08:05:30.273Z,28.93
2023-02-23T08:07:58.511Z,26.17
2023-02-23T08:10:25.735Z,31.07
2023-02-23T08:12:52.589Z,28.43
2023-02-23T08:15:19.332Z,28.43
2023-02-23T08:17:45.966Z,30.83
2023-02-23T08:20:12.726Z,25.93
2023-02-23T08:22:48.871Z,31.10
2023-02-23T08:25:17.409Z,28.57
2023-02-23T08:27:44.050Z,29.40
2023-02-23T08:30:11.535Z,31.03
2023-02-23T08:32:38.315Z,32.57
2023-02-23T08:35:05.630Z,32.47
2023-02-23T08:37:32.721Z,31.80
2023-02-23T08:40:00.606Z,33.40
2023-02-23T08:42:27.813Z,29.13
2023-02-23T08:44:54.564Z,32.20
2023-02-23T08:47:23.379Z,33.57
2023-02-23T08:49:51.014Z,27.33
2023-02-23T08:52:17.944Z,29.90
2023-02-23T08:54:44.591Z,23.63
2023-02-23T08:57:12.620Z,27.97
2023-02-23T08:59:41.162Z,26.17
2023-02-23T09:02:12.792Z,23.47
2023-02-23T09:04:41.888Z,22.93
2023-02-23T09:07:13.042Z,24.93
2023-02-23T09:09:39.783Z,21.93
2023-02-23T09:12:06.519Z,21.57
2023-02-23T09:14:33.451Z,19.77
2023-02-23T09:17:00.098Z,20.80
2023-02-23T09:19:27.529Z,17.87
2023-02-23T09:21:54.327Z,18.60
2023-02-23T09:24:21.723Z,17.53
2023-02-23T09:26:49.632Z,21.30
2023-02-23T09:29:16.326Z,20.40
2023-02-23T09:31:43.739Z,23.83
2023-02-23T09:34:12.583Z,20.83
2023-02-23T09:36:39.349Z,19.63
2023-02-23T09:39:05.954Z,19.10
2023-02-23T09:41:51.874Z,21.67
2023-02-23T09:44:51.240Z,20.13
2023-02-23T09:47:46.113Z,20.80
2023-02-23T09:50:22.546Z,18.77
2023-02-23T09:52:58.173Z,17.93
2023-02-23T09:55:26.420Z,16.20
2023-02-23T09:57:54.049Z,15.23
2023-02-23T10:00:27.396Z,17.17
2023-02-23T10:03:08.355Z,19.30
2023-02-23T10:05:43.873Z,19.43
2023-02-23T10:08:28.762Z,15.33
2023-02-23T10:11:02.899Z,22.53
2023-02-23T10:13:51.340Z,20.13
2023-02-23T10:16:38.550Z,17.93
2023-02-23T10:19:29.273Z,21.53
2023-02-23T10:22:03.333Z,15.33
2023-02-23T10:24:36.947Z,15.47
2023-02-23T10:27:10.284Z,28.70
2023-02-23T10:29:45.600Z,20.03
2023-02-23T10:32:22.863Z,18.43
2023-02-23T10:34:54.615Z,21.60
2023-02-23T10:37:21.604Z,18.93
2023-02-23T10:39:49.823Z,27.00
2023-02-23T10:42:21.836Z,16.57
2023-02-23T10:44:50.020Z,15.00
2023-02-23T10:47:22.365Z,13.83
2023-02-23T10:49:52.283Z,16.47
2023-02-23T10:52:27.523Z,16.23
2023-02-23T10:54:54.228Z,13.10
2023-02-23T10:57:27.796Z,19.93
2023-02-23T11:00:19.377Z,20.37
2023-02-23T11:02:47.686Z,16.23
2023-02-23T11:05:50.437Z,17.43
2023-02-23T11:08:25.069Z,18.97
2023-02-23T11:11:02.028Z,17.47
2023-02-23T11:13:36.017Z,17.70
2023-02-23T11:16:07.214Z,13.47
2023-02-23T11:18:34.019Z,14.60
2023-02-23T11:21:00.810Z,15.63
2023-02-23T11:23:35.695Z,11.83
2023-02-23T11:26:06.193Z,15.03
2023-02-23T11:28:43.297Z,19.77
2023-02-23T11:31:20.425Z,17.63
2023-02-23T11:33:48.302Z,14.30
2023-02-23T11:36:17.988Z,15.50
2023-02-23T11:38:47.320Z,16.57
2023-02-23T11:41:23.305Z,24.13
2023-02-23T11:44:02.827Z,17.17
2023-02-23T11:46:33.344Z,15.10
2023-02-23T11:49:14.695Z,16.50
2023-02-23T11:51:48.972Z,15.93
2023-02-23T11:54:27.369Z,14.73
2023-02-23T11:56:58.068Z,14.13
2023-02-23T11:59:45.175Z,14.93
2023-02-23T12:02:23.027Z,17.60
2023-02-23T12:04:53.964Z,13.70
2023-02-23T12:07:34.811Z,14.70
2023-02-23T12:10:12.734Z,18.87
2023-02-23T12:12:50.212Z,12.67
2023-02-23T12:15:48.410Z,12.43
2023-02-23T12:18:20.980Z,13.43
2023-02-23T12:20:50.646Z,12.97
2023-02-23T12:23:22.359Z,15.17
2023-02-23T12:26:00.549Z,12.50
2023-02-23T12:28:41.502Z,13.20
2023-02-23T12:31:25.971Z,16.73
2023-02-23T12:33:59.043Z,11.90
2023-02-23T12:36:35.348Z,16.07
2023-02-23T12:39:40.000Z,11.50
2023-02-23T12:42:15.674Z,8.47
2023-02-23T12:45:02.835Z,10.70
2023-02-23T12:47:37.046Z,12.30
2023-02-23T12:50:13.506Z,21.30
2023-02-23T12:52:50.953Z,11.47
2023-02-23T12:55:29.167Z,13.33
2023-02-23T12:58:08.015Z,30.87
2023-02-23T13:01:01.360Z,50.13
2023-02-23T13:03:50.005Z,48.37
2023-02-23T13:06:50.458Z,15.53
2023-02-23T13:09:51.497Z,12.67
2023-02-23T13:12:36.230Z,13.10
2023-02-23T13:15:34.362Z,11.50
2023-02-23T13:18:24.481Z,13.60
2023-02-23T13:21:39.493Z,26.63
2023-02-23T13:24:14.328Z,29.07
2023-02-23T13:27:01.732Z,16.77
2023-02-23T13:29:37.866Z,21.97
2023-02-23T13:32:09.808Z,29.00
2023-02-23T13:34:44.208Z,41.20
2023-02-23T13:37:14.811Z,14.10
2023-02-23T13:39:47.766Z,18.90
2023-02-23T13:42:40.847Z,13.33
2023-02-23T13:45:23.098Z,22.20
2023-02-23T13:47:52.884Z,32.93
2023-02-23T13:50:29.846Z,28.80
2023-02-23T13:53:04.774Z,12.43
2023-02-23T13:55:49.635Z,15.40
2023-02-23T13:58:28.862Z,14.17
2023-02-23T14:01:16.513Z,11.77
2023-02-23T14:04:04.196Z,12.33
2023-02-23T14:06:34.150Z,16.13
2023-02-23T14:09:09.612Z,17.87
2023-02-23T14:11:53.552Z,15.13
2023-02-23T14:14:32.849Z,10.97
2023-02-23T14:17:14.733Z,25.10
2023-02-23T14:19:43.137Z,12.27
2023-02-23T14:22:18.436Z,11.03
2023-02-23T14:24:45.561Z,19.70
2023-02-23T14:27:42.574Z,31.47
2023-02-23T14:30:12.235Z,14.97
2023-02-23T14:32:42.004Z,14.57
2023-02-23T14:35:33.596Z,11.10
2023-02-23T14:38:24.853Z,10.30
2023-02-23T14:40:54.637Z,10.10
2023-02-23T14:43:38.154Z,12.13
2023-02-23T14:46:13.139Z,11.97
2023-02-23T14:48:44.632Z,11.10
2023-02-23T14:51:24.850Z,13.37
2023-02-23T14:53:53.717Z,13.17
2023-02-23T14:56:24.686Z,16.50
2023-02-23T14:58:54.663Z,9.57
2023-02-23T15:01:39.517Z,8.73
2023-02-23T15:04:16.365Z,11.93
2023-02-23T15:06:46.871Z,10.53
2023-02-23T15:09:30.102Z,11.60
2023-02-23T15:11:59.240Z,9.60
2023-02-23T15:14:28.166Z,9.03
2023-02-23T15:16:56.606Z,8.17
2023-02-23T15:19:33.523Z,11.20
2023-02-23T15:22:02.057Z,8.27
2023-02-23T15:24:40.763Z,12.07
2023-02-23T15:27:16.568Z,11.50
2023-02-23T15:29:43.431Z,7.30
2023-02-23T15:32:16.807Z,11.33
2023-02-23T15:34:43.645Z,10.90
2023-02-23T15:37:20.168Z,8.23
2023-02-23T15:39:56.899Z,6.90
2023-02-23T15:42:36.280Z,8.87
2023-02-23T15:45:11.608Z,8.60
2023-02-23T15:47:38.408Z,9.60
2023-02-23T15:50:16.495Z,10.20
2023-02-23T15:52:50.307Z,7.03
2023-02-23T15:55:29.892Z,7.90
2023-02-23T15:57:59.076Z,10.57
2023-02-23T16:00:44.826Z,7.40
2023-02-23T16:03:30.561Z,7.73
2023-02-23T16:06:19.171Z,7.83
2023-02-23T16:09:22.177Z,7.97
2023-02-23T16:12:08.933Z,7.10
2023-02-23T16:14:45.053Z,6.70
2023-02-23T16:17:24.216Z,7.03
2023-02-23T16:19:51.395Z,7.17
2023-02-23T16:22:27.038Z,7.57
2023-02-23T16:25:00.102Z,5.10
2023-02-23T16:27:28.639Z,9.63
2023-02-23T16:30:04.662Z,7.33
2023-02-23T16:32:37.762Z,8.80
2023-02-23T16:35:19.642Z,6.97
2023-02-23T16:38:01.059Z,8.37
2023-02-23T16:40:28.521Z,6.83
2023-02-23T16:42:59.566Z,8.67
2023-02-23T16:45:27.251Z,11.60
2023-02-23T16:47:53.962Z,7.93
2023-02-23T16:50:24.376Z,8.03
2023-02-23T16:52:53.088Z,7.97
2023-02-23T16:55:26.000Z,9.13
2023-02-23T16:58:03.793Z,7.53
2023-02-23T17:00:33.402Z,8.53
2023-02-23T17:03:01.017Z,10.83
2023-02-23T17:05:28.718Z,7.23
2023-02-23T17:07:57.756Z,9.60
2023-02-23T17:10:33.332Z,13.53
2023-02-23T17:13:05.727Z,7.70
2023-02-23T17:15:36.556Z,51.30
2023-02-23T17:18:05.206Z,15.60
2023-02-23T17:20:32.665Z,9.03
2023-02-23T17:23:01.374Z,13.23
2023-02-23T17:25:28.719Z,15.50
2023-02-23T17:27:57.259Z,10.03
2023-02-23T17:30:25.426Z,12.83
2023-02-23T17:32:54.549Z,15.13
2023-02-23T17:35:21.991Z,10.03
2023-02-23T17:37:49.000Z,10.23
2023-02-23T17:40:28.902Z,12.00
2023-02-23T17:42:57.738Z,12.73
2023-02-23T17:45:24.846Z,10.20
2023-02-23T17:47:51.767Z,13.13
2023-02-23T17:50:22.555Z,8.40
2023-02-23T17:52:50.161Z,9.90
2023-02-23T17:55:17.765Z,7.70
2023-02-23T17:57:45.214Z,10.00
2023-02-23T18:00:13.900Z,7.80
2023-02-23T18:02:42.801Z,7.90
2023-02-23T18:05:11.299Z,8.70
2023-02-23T18:07:38.379Z,9.97
2023-02-23T18:10:06.242Z,8.77
2023-02-23T18:12:34.294Z,12.20
2023-02-23T18:15:01.359Z,13.63
2023-02-23T18:17:28.522Z,11.33
2023-02-23T18:19:55.403Z,12.73
2023-02-23T18:22:22.065Z,10.03
2023-02-23T18:24:48.679Z,9.23
2023-02-23T18:27:15.441Z,10.23
2023-02-23T18:29:42.119Z,26.80
2023-02-23T18:32:08.955Z,18.93
2023-02-23T18:34:36.334Z,12.50
2023-02-23T18:37:04.114Z,13.40
2023-02-23T18:39:32.740Z,11.80
2023-02-23T18:42:00.545Z,10.30
2023-02-23T18:44:27.566Z,11.53
2023-02-23T18:46:54.845Z,10.80
2023-02-23T18:49:23.922Z,11.30
2023-02-23T18:51:51.375Z,12.63
2023-02-23T18:54:18.590Z,11.93
2023-02-23T18:56:47.427Z,12.93
2023-02-23T18:59:16.159Z,12.33
2023-02-23T19:01:45.358Z,11.60
2023-02-23T19:04:13.176Z,16.03
2023-02-23T19:06:43.707Z,15.43
2023-02-23T19:09:12.423Z,15.17
2023-02-23T19:11:40.718Z,18.50
2023-02-23T19:14:13.393Z,17.47
2023-02-23T19:16:41.174Z,12.77
2023-02-23T19:19:08.871Z,11.57
2023-02-23T19:21:36.395Z,17.77
2023-02-23T19:24:04.856Z,14.07
2023-02-23T19:26:33.652Z,16.17
2023-02-23T19:29:00.524Z,17.87
2023-02-23T19:31:28.351Z,16.27
2023-02-23T19:33:57.032Z,11.70
2023-02-23T19:36:29.648Z,14.47
2023-02-23T19:39:05.661Z,15.13
2023-02-23T19:41:33.841Z,14.63
2023-02-23T19:44:00.951Z,17.33
2023-02-23T19:46:27.982Z,13.83
2023-02-23T19:48:56.053Z,14.07
2023-02-23T19:51:23.805Z,15.53
2023-02-23T19:53:53.623Z,16.27
2023-02-23T19:56:22.200Z,15.17
2023-02-23T19:58:49.346Z,17.67
2023-02-23T20:01:18.812Z,16.87
2023-02-23T20:03:49.453Z,13.37
2023-02-23T20:06:17.650Z,15.27
2023-02-23T20:08:45.318Z,13.97
2023-02-23T20:11:12.165Z,15.33
2023-02-23T20:13:39.154Z,15.67
2023-02-23T20:16:11.817Z,14.07
2023-02-23T20:18:40.123Z,17.23
2023-02-23T20:21:18.492Z,17.57
2023-02-23T20:23:47.220Z,15.50
2023-02-23T20:26:19.906Z,14.97
2023-02-23T20:28:46.936Z,13.63
2023-02-23T20:31:18.088Z,13.40
2023-02-23T20:33:44.927Z,14.00
2023-02-23T20:36:14.705Z,13.23
2023-02-23T20:38:42.244Z,14.33
2023-02-23T20:41:08.985Z,14.27
2023-02-23T20:43:37.619Z,11.40
2023-02-23T20:46:04.840Z,15.00
2023-02-23T20:48:34.477Z,13.27
2023-02-23T20:51:01.820Z,16.90
2023-02-23T20:53:29.826Z,18.03
2023-02-23T20:55:56.797Z,14.27
2023-02-23T20:58:24.910Z,16.63
2023-02-23T21:00:56.962Z,16.17
2023-02-23T21:03:25.258Z,14.17
2023-02-23T21:05:52.557Z,19.10
2023-02-23T21:08:19.884Z,16.57
2023-02-23T21:10:48.666Z,16.70
2023-02-23T21:13:16.633Z,15.40
2023-02-23T21:15:44.705Z,16.87
2023-02-23T21:18:11.787Z,17.40
2023-02-23T21:20:39.507Z,16.63
2023-02-23T21:23:06.377Z,14.70
2023-02-23T21:25:33.158Z,14.73
2023-02-23T21:28:02.722Z,15.63
2023-02-23T21:30:30.061Z,15.73
2023-02-23T21:32:57.794Z,15.07
2023-02-23T21:35:24.732Z,16.83
2023-02-23T21:37:51.834Z,16.53
2023-02-23T21:40:20.863Z,16.37
2023-02-23T21:42:48.084Z,16.90
2023-02-23T21:45:15.282Z,13.77
2023-02-23T21:47:44.658Z,16.57
2023-02-23T21:50:15.560Z,16.77
2023-02-23T21:52:43.884Z,15.53
2023-02-23T21:55:21.442Z,15.77
2023-02-23T21:57:49.228Z,18.57
2023-02-23T22:00:16.364Z,13.77
2023-02-23T22:02:46.510Z,14.53
2023-02-23T22:05:15.486Z,17.00
2023-02-23T22:07:48.085Z,15.93
2023-02-23T22:10:14.955Z,18.50
2023-02-23T22:12:41.761Z,17.53
2023-02-23T22:15:10.238Z,14.77
2023-02-23T22:17:38.578Z,16.73
2023-02-23T22:20:07.169Z,15.07
2023-02-23T22:22:37.112Z,14.90
2023-02-23T22:25:04.443Z,17.70
2023-02-23T22:27:31.817Z,17.83
2023-02-23T22:30:01.846Z,17.47
2023-02-23T22:32:33.375Z,19.43
2023-02-23T22:35:00.950Z,17.97
2023-02-23T22:37:31.852Z,19.20
2023-02-23T22:40:01.712Z,17.33
2023-02-23T22:42:30.307Z,21.20
2023-02-23T22:44:57.111Z,17.67
2023-02-23T22:47:24.300Z,16.07
2023-02-23T22:49:51.092Z,21.17
2023-02-23T22:52:17.775Z,20.93
2023-02-23T22:54:45.649Z,21.13
2023-02-23T22:57:13.168Z,22.47
2023-02-23T22:59:39.856Z,18.63
2023-02-23T23:02:06.725Z,20.23
2023-02-23T23:04:34.427Z,24.60
2023-02-23T23:07:01.601Z,22.53
2023-02-23T23:09:28.382Z,27.30
2023-02-23T23:11:56.599Z,24.17
2023-02-23T23:14:23.593Z,24.77
2023-02-23T23:16:50.290Z,24.40
2023-02-23T23:19:23.679Z,27.87
2023-02-23T23:21:56.132Z,28.93
2023-02-23T23:24:24.431Z,27.60
2023-02-23T23:26:55.439Z,25.83
2023-02-23T23:29:23.592Z,29.63
2023-02-23T23:31:51.639Z,31.00
2023-02-23T23:34:21.605Z,28.03
2023-02-23T23:36:49.784Z,28.40
2023-02-23T23:39:18.245Z,32.10
2023-02-23T23:41:47.804Z,28.70
2023-02-23T23:44:17.261Z,31.30
2023-02-23T23:46:45.688Z,25.70
2023-02-23T23:49:18.384Z,30.97
2023-02-23T23:51:50.159Z,29.63
2023-02-23T23:54:23.500Z,28.53
2023-02-23T23:56:50.721Z,30.07
2023-02-23T23:59:20.261Z,31.73
